• Join FlightAware (Why Join?)
  • Login
  • US Flag 
08:38AM EST


 

Airport Tracker/Info


-or-


 

Live Flight TrackerFlight Track Log ✈ UAL33 ✈ 24-Jul-2013 ✈ KORD - KIAH

Flight Track Log - Related Links

Times and Time Zones

All times are in EDT time to prevent confusion due to time zone crossing. See the UAL33 flight status page for this flight to view local times or setup timezone preferences in your user account.

Time Position Orientation Groundspeed Altitude Reporting Facility
EDT Latitude Longitude Course Direction KTS MPH feet Rate Location/Type
09:55PM 41.9880 -87.9310 319° Northwest 158 182 900  Level FlightAware
09:56PM 41.9940 -87.9370 323° Northwest 160 184 1,400 2,850 Climbing FlightAware
09:56PM 42.0130 -87.9560 323° Northwest 186 214 2,800 2,786 Climbing FlightAware
09:57PM 42.0350 -87.9750 327° Northwest 220 253 4,000 2,727 Climbing FlightAware
09:57PM 42.0600 -87.9980 326° Northwest 256 295 5,300 3,321 Climbing FlightAware
09:57PM 42.0890 -88.0250 325° Northwest 271 312 7,100 4,050 Climbing FlightAware
09:58PM 42.0960 -88.0430 298° West 274 315 8,000 4,000 Climbing FlightAware
09:58PM 42.0980 -88.0610 279° West 277 319 8,700 3,783 Climbing FlightAware
09:58PM 42.0830 -88.1180 250° West 291 335 10,900 3,568 Climbing FlightAware
09:59PM 42.0590 -88.1850 244° Southwest 317 365 13,100 3,225 Climbing FlightAware
10:00PM 42.0310 -88.2600 243° Southwest 345 397 15,200 2,211 Climbing FlightAware
10:00PM 42.0050 -88.3300 243° Southwest 354 407 15,900 525 Climbing FlightAware
10:01PM 41.9730 -88.4140 243° Southwest 348 400 15,900 1,071 Level FlightAware
10:02PM 41.9450 -88.4930 245° Southwest 352 405 17,400 2,921 Climbing FlightAware
10:02PM 41.9230 -88.5680 249° West 362 417 19,600 3,385 Climbing FlightAware
10:03PM 41.8990 -88.6570 250° West 375 432 21,800 2,550 Climbing FlightAware
10:04PM 41.8750 -88.7400 249° West 382 440 23,000 1,421 Climbing FlightAware
10:04PM 41.8510 -88.8260 249° West 384 442 23,600 1,429 Climbing FlightAware
10:05PM 41.8200 -88.9340 249° West 418 481 25,000 2,233 Climbing FlightAware
10:06PM 41.7930 -89.0300 249° West 429 494 26,800 2,643 Climbing FlightAware
10:07PM 41.7610 -89.1420 249° West 439 505 28,700 2,581 Climbing FlightAware
10:07PM 41.7300 -89.2500 249° West 446 513 30,500 2,268 Climbing FlightAware
10:08PM 41.7010 -89.3500 249° West 452 520 31,800 1,829 Climbing FlightAware
10:09PM 41.6690 -89.4620 249° West 458 527 33,000 1,884 Climbing FlightAware
10:09PM 41.6350 -89.5790 249° West 462 532 34,500 1,756 Climbing FlightAware
10:10PM 41.6050 -89.6820 249° West 472 543 35,400 1,610 Climbing FlightAware
10:11PM 41.5700 -89.8020 249° West 471 542 36,700 1,793 Climbing FlightAware
10:11PM 41.5380 -89.9130 249° West 467 537 38,000 1,571 Climbing FlightAware
10:12PM 41.5040 -90.0280 248° West 469 540 38,900 1,171 Climbing FlightAware
10:13PM 41.4720 -90.1340 248° West 473 544 39,600 767 Climbing FlightAware
10:14PM 41.4390 -90.2450 248° West 469 540 40,000 279 Climbing FlightAware
10:14PM 41.4030 -90.3650 248° West 467 537 40,000  Level FlightAware
10:15PM 41.3720 -90.4690 248° West 466 536 40,000  Level FlightAware
10:16PM 41.3360 -90.5890 248° West 468 539 40,000  Level FlightAware
10:16PM 41.2950 -90.6810 239° Southwest 480 552 40,000  Level FlightAware
10:17PM 41.2390 -90.7780 233° Southwest 480 552 40,000  Level FlightAware
10:18PM 41.1840 -90.8710 232° Southwest 478 550 40,000  Level FlightAware
10:18PM 41.1360 -90.9510 231° Southwest 475 547 40,000  Level FlightAware
10:19PM 41.0740 -91.0570 232° Southwest 473 544 40,000  Level FlightAware
10:20PM 41.0230 -91.1410 231° Southwest 473 544 40,000  Level FlightAware
10:20PM 40.9650 -91.2370 231° Southwest 473 544 40,000  Level FlightAware
10:21PM 40.9060 -91.3360 232° Southwest 472 543 40,000  Level FlightAware
10:22PM 40.8470 -91.4330 231° Southwest 470 541 40,000  Level FlightAware
10:22PM 40.7930 -91.5240 232° Southwest 466 536 40,000  Level FlightAware
10:23PM 40.7480 -91.5980 231° Southwest 465 535 40,000  Level FlightAware
10:24PM 40.6850 -91.7010 231° Southwest 464 534 40,000  Level FlightAware
10:24PM 40.6320 -91.7880 231° Southwest 463 533 40,000  Level FlightAware
10:25PM 40.5880 -91.8610 232° Southwest 465 535 40,000  Level FlightAware
10:26PM 40.5290 -91.9560 231° Southwest 467 537 40,000  Level FlightAware
10:26PM 40.4770 -92.0410 231° Southwest 468 539 40,000  Level FlightAware
10:27PM 40.4160 -92.1400 231° Southwest 469 540 40,000  Level FlightAware
10:28PM 40.3590 -92.2320 231° Southwest 462 532 40,000  Level FlightAware
10:28PM 40.2980 -92.3300 231° Southwest 464 534 40,000  Level FlightAware
10:29PM 40.2460 -92.4150 231° Southwest 461 531 40,000  Level FlightAware
10:30PM 40.1910 -92.5030 231° Southwest 461 531 40,000  Level FlightAware
10:30PM 40.1410 -92.5790 229° Southwest 471 542 40,000  Level FlightAware
10:31PM 40.0700 -92.6610 221° Southwest 486 559 40,000  Level FlightAware
10:32PM 40.0010 -92.7330 219° Southwest 484 557 40,000  Level FlightAware
10:33PM 39.9210 -92.8160 219° Southwest 483 556 40,000  Level FlightAware
10:33PM 39.8500 -92.8900 219° Southwest 480 552 40,000  Level FlightAware
10:34PM 39.7710 -92.9720 219° Southwest 481 554 40,000  Level FlightAware
10:35PM 39.6870 -93.0600 219° Southwest 481 554 40,000  Level FlightAware
10:36PM 39.6070 -93.1430 219° Southwest 478 550 40,000  Level FlightAware
10:36PM 39.5300 -93.2230 219° Southwest 478 550 40,000  Level FlightAware
10:37PM 39.4660 -93.2890 219° Southwest 483 556 40,000  Level FlightAware
10:38PM 39.3820 -93.3740 218° Southwest 486 559 40,000  Level FlightAware
10:38PM 39.3110 -93.4470 219° Southwest 488 562 40,000  Level FlightAware
10:39PM 39.2470 -93.5130 219° Southwest 488 562 40,000  Level FlightAware
10:40PM 39.1760 -93.5840 218° Southwest 490 564 40,000  Level FlightAware
10:40PM 39.0990 -93.6630 219° Southwest 489 563 40,000  Level FlightAware
10:41PM 39.0280 -93.7360 219° Southwest 487 560 40,000  Level FlightAware
10:42PM 38.9470 -93.8170 218° Southwest 484 557 40,000  Level FlightAware
10:42PM 38.8770 -93.8880 218° Southwest 481 554 40,000  Level FlightAware
10:43PM 38.8010 -93.9650 218° Southwest 481 554 40,000  Level FlightAware
10:44PM 38.7410 -94.0260 218° Southwest 479 551 40,000  Level FlightAware
10:44PM 38.6690 -94.0990 218° Southwest 480 552 40,000  Level FlightAware
10:45PM 38.5980 -94.1690 218° Southwest 481 554 40,000  Level FlightAware
10:46PM 38.5260 -94.2390 217° Southwest 482 555 40,000  Level FlightAware
10:46PM 38.4630 -94.3010 218° Southwest 482 555 40,000  Level FlightAware
10:47PM 38.3830 -94.3790 217° Southwest 480 552 40,000  Level FlightAware
10:48PM 38.3130 -94.4480 218° Southwest 477 549 40,000  Level FlightAware
10:48PM 38.2460 -94.5040 213° Southwest 486 559 40,000  Level FlightAware
10:49PM 38.1570 -94.5620 207° Southwest 493 567 40,000  Level FlightAware
10:50PM 38.0790 -94.6130 207° Southwest 495 570 40,000  Level FlightAware
10:50PM 37.9910 -94.6690 207° Southwest 496 571 40,000  Level FlightAware
10:51PM 37.9000 -94.7270 207° Southwest 494 568 40,000  Level FlightAware
10:52PM 37.8220 -94.7770 207° Southwest 492 566 40,000  Level FlightAware
10:53PM 37.7340 -94.8330 207° Southwest 488 562 40,000  Level FlightAware
10:53PM 37.6570 -94.8820 207° Southwest 489 563 40,000  Level FlightAware
10:54PM 37.5770 -94.9320 206° Southwest 490 564 40,000  Level FlightAware
10:55PM 37.4910 -94.9870 207° Southwest 492 566 40,000  Level FlightAware
10:55PM 37.4180 -95.0330 207° Southwest 495 570 40,000  Level FlightAware
10:56PM 37.3400 -95.0820 207° Southwest 495 570 40,000  Level FlightAware
10:57PM 37.2700 -95.1250 206° Southwest 495 570 40,000  Level FlightAware
10:57PM 37.1870 -95.1760 206° Southwest 495 570 40,000  Level FlightAware
10:58PM 37.0800 -95.2450 207° Southwest 495 570 40,000  Level FlightAware
10:59PM 36.9970 -95.2960 206° Southwest 491 565 40,000  Level FlightAware
10:59PM 36.9040 -95.3540 207° Southwest 486 559 40,000  Level FlightAware
11:00PM 36.8330 -95.3980 206° Southwest 484 557 40,000  Level FlightAware
11:01PM 36.7510 -95.4490 206° Southwest 487 560 40,000  Level FlightAware
11:01PM 36.6630 -95.5030 206° Southwest 492 566 40,000  Level FlightAware
11:02PM 36.5980 -95.5430 206° Southwest 494 568 40,000  Level FlightAware
11:03PM 36.5100 -95.5970 206° Southwest 493 567 40,000  Level FlightAware
11:03PM 36.4240 -95.6490 206° Southwest 490 564 40,000  Level FlightAware
11:04PM 36.3390 -95.7020 207° Southwest 492 566 40,000  Level FlightAware
11:05PM 36.2210 -95.7730 206° Southwest 496 571 40,000  Level FlightAware
11:06PM 36.1020 -95.8230 199° South 506 582 40,000  Level FlightAware
11:07PM 36.0020 -95.8560 195° South 507 583 40,000  Level FlightAware
11:07PM 35.9170 -95.8860 196° South 506 582 40,000  Level FlightAware
11:08PM 35.8320 -95.9160 196° South 502 578 40,000  Level FlightAware
11:09PM 35.7320 -95.9510 196° South 503 579 40,000  Level FlightAware
11:09PM 35.6500 -95.9790 196° South 503 579 40,000  Level FlightAware
11:10PM 35.5620 -96.0100 196° South 504 580 40,000  Level FlightAware
11:11PM 35.4760 -96.0390 195° South 503 579 40,000  Level FlightAware
11:11PM 35.3810 -96.0720 196° South 504 580 40,000  Level FlightAware
11:12PM 35.2960 -96.1010 196° South 504 580 40,000  Level FlightAware
11:13PM 35.2010 -96.1340 196° South 505 581 40,000  Level FlightAware
11:13PM 35.1020 -96.1680 196° South 505 581 40,000  Level FlightAware
11:14PM 35.0070 -96.2000 195° South 505 581 40,000  Level FlightAware
11:15PM 34.9170 -96.2310 196° South 506 582 40,000  Level FlightAware
11:15PM 34.8180 -96.2640 195° South 507 583 40,000  Level FlightAware
11:16PM 34.7230 -96.2970 196° South 506 582 40,000  Level FlightAware
11:17PM 34.6320 -96.3280 196° South 505 581 40,000  Level FlightAware
11:17PM 34.5310 -96.3620 196° South 505 581 40,000  Level FlightAware
11:18PM 34.4370 -96.3930 195° South 506 582 40,000  Level FlightAware
11:19PM 34.3470 -96.4240 196° South 504 580 40,000  Level FlightAware
11:20PM 34.2480 -96.4570 195° South 504 580 40,000  Level FlightAware
11:20PM 34.1670 -96.4840 195° South 504 580 40,000  Level FlightAware
11:21PM 34.0780 -96.5140 196° South 504 580 40,000  Level FlightAware
11:22PM 33.9840 -96.5450 195° South 503 579 40,000  Level FlightAware
11:22PM 33.8840 -96.5780 195° South 503 579 40,000  Level FlightAware
11:23PM 33.7950 -96.6080 196° South 502 578 40,000  Level FlightAware
11:24PM 33.7040 -96.6380 195° South 501 577 40,000  Level FlightAware
11:24PM 33.6617 -96.6517 195° South 502 578 40,000  Level FlightAware ADS-B
11:24PM 33.5873 -96.6763 195° South 502 578 40,000  Level FlightAware ADS-B
11:25PM 33.5189 -96.6989 195° South 501 577 40,000  Level FlightAware ADS-B
11:25PM 33.4751 -96.7131 195° South 500 575 40,000  Level FlightAware ADS-B
11:26PM 33.4456 -96.7206 192° South 502 578 40,000  Level FlightAware ADS-B
11:26PM 33.3847 -96.7261 184° South 507 583 40,000  Level FlightAware ADS-B
11:26PM 33.3117 -96.7191 175° South 507 583 40,000  Level FlightAware ADS-B
11:27PM 33.2390 -96.7110 175° South 511 588 40,000  Level FlightAware
11:27PM 33.1760 -96.7035 174° South 511 588 40,000  Level FlightAware ADS-B
11:28PM 33.0973 -96.6944 174° South 511 588 40,000  Level FlightAware ADS-B
11:29PM 33.0258 -96.6861 174° South 510 587 40,000  Level FlightAware ADS-B
11:29PM 32.9247 -96.6744 174° South 509 586 40,000  Level FlightAware ADS-B
11:30PM 32.8530 -96.6660 174° South 507 583 40,000  Level FlightAware
11:30PM 32.8217 -96.6625 175° South 507 583 40,000  Level FlightAware ADS-B
11:30PM 32.7517 -96.6544 174° South 507 583 40,000  Level FlightAware ADS-B
11:31PM 32.6648 -96.6444 174° South 506 582 40,000  Level FlightAware ADS-B
11:32PM 32.5893 -96.6357 174° South 505 581 40,000  Level FlightAware ADS-B
11:32PM 32.5129 -96.6271 175° South 506 582 40,000  Level FlightAware ADS-B
11:33PM 32.3966 -96.6137 174° South 507 583 40,000  Level FlightAware ADS-B
11:34PM 32.2656 -96.5989 175° South 507 583 40,000  Level FlightAware ADS-B
11:34PM 32.1925 -96.5905 174° South 508 585 40,000 -95 Level FlightAware ADS-B
11:35PM 32.1177 -96.5821 175° South 505 581 39,900 -960 Descending FlightAware ADS-B
11:37PM 31.9003 -96.5574 175° South 517 595 38,000 -1,122 Descending FlightAware ADS-B
11:37PM 31.8277 -96.5492 175° South 519 597 37,600 -1,200 Descending FlightAware ADS-B
11:38PM 31.7563 -96.5413 175° South 519 597 36,800 -1,600 Descending FlightAware ADS-B
11:38PM 31.6836 -96.5330 174° South 511 588 36,000 -787 Descending FlightAware ADS-B
11:39PM 31.6120 -96.5248 174° South 507 583 36,000 -152 Level FlightAware ADS-B
11:39PM 31.4999 -96.5047 169° South 501 577 35,800 -1,479 Descending FlightAware ADS-B
11:40PM 31.4437 -96.4861 164° South 513 590 34,200 -4,091 Descending FlightAware ADS-B
11:40PM 31.3484 -96.4503 162° South 533 613 31,300 -2,789 Descending FlightAware ADS-B
11:41PM 31.2798 -96.4245 162° South 503 579 30,900 -2,800 Descending FlightAware ADS-B
11:41PM 31.2122 -96.3993 162° South 521 600 28,500 -4,355 Descending FlightAware ADS-B
11:42PM 31.1396 -96.3722 162° South 525 604 26,400 -3,024 Descending FlightAware ADS-B
11:44PM 30.9350 -96.2960 162° South 486 559 22,300 -2,625 Descending FlightAware ADS-B
11:44PM 30.8566 -96.2663 160° South 466 536 20,800 -2,298 Descending FlightAware ADS-B
11:44PM 30.8379 -96.2564 156° South 460 529 20,500 -2,000 Descending FlightAware ADS-B
11:44PM 30.8282 -96.2502 151° Southeast 456 525 20,300 -2,182 Descending FlightAware ADS-B
11:44PM 30.8172 -96.2422 148° Southeast 453 521 20,100 -2,250 Descending FlightAware ADS-B
11:45PM 30.8004 -96.2280 144° Southeast 447 514 19,700 -2,333 Descending FlightAware ADS-B
11:45PM 30.7886 -96.2161 139° Southeast 442 509 19,400 -2,016 Descending FlightAware ADS-B
11:47PM 30.6159 -96.0334 138° Southeast 394 453 15,400 -1,823 Descending FlightAware ADS-B
11:48PM 30.5377 -95.9515 138° Southeast 369 425 13,900 -1,623 Descending FlightAware ADS-B
11:49PM 30.4617 -95.8717 138° Southeast 357 411 12,100 -1,744 Descending FlightAware ADS-B
11:49PM 30.4311 -95.8393 138° Southeast 354 407 11,400 -1,355 Descending FlightAware ADS-B
11:49PM 30.4231 -95.8316 140° Southeast 347 399 11,400 273 Level FlightAware ADS-B
11:50PM 30.4028 -95.8170 151° Southeast 326 375 11,500 231 Climbing FlightAware ADS-B
11:50PM 30.3887 -95.8096 156° South 318 366 11,500 -1,324 Level FlightAware ADS-B
11:51PM 30.3092 -95.7834 165° South 304 350 10,000 -1,703 Descending FlightAware ADS-B
11:51PM 30.2875 -95.7764 164° South 304 350 9,400 -1,935 Descending FlightAware ADS-B
11:52PM 30.2251 -95.7569 165° South 298 343 8,000 -1,579 Descending FlightAware ADS-B
11:52PM 30.1848 -95.7441 165° South 295 339 7,400 -1,174 Descending FlightAware ADS-B
11:53PM 30.1640 -95.7375 165° South 293 337 7,100 -1,091 Descending FlightAware ADS-B
11:53PM 30.1424 -95.7306 165° South 289 333 6,800 -894 Descending FlightAware ADS-B
11:53PM 30.1037 -95.7184 165° South 275 316 6,400 -783 Descending FlightAware ADS-B
11:54PM 30.0851 -95.7125 165° South 270 311 6,200 -938 Descending FlightAware ADS-B
11:54PM 30.0660 -95.7065 165° South 269 310 5,900 -1,111 Descending FlightAware ADS-B
11:54PM 30.0524 -95.7021 164° South 267 307 5,700 -818 Descending FlightAware ADS-B
11:54PM 30.0390 -95.6978 164° South 266 306 5,600 -789 Descending FlightAware ADS-B
11:55PM 30.0133 -95.6770 132° Southeast 254 292 5,200 -1,091 Descending FlightAware ADS-B
11:55PM 30.0090 -95.6706 128° Southeast 253 291 5,000 -1,440 Descending FlightAware ADS-B
11:55PM 29.9966 -95.6491 121° Southeast 251 289 4,600 -1,125 Descending FlightAware ADS-B
11:55PM 29.9898 -95.6340 115° Southeast 246 283 4,400 -750 Descending FlightAware ADS-B
11:55PM 29.9886 -95.6298 108° East 243 280 4,400 -1,000 Level FlightAware ADS-B
11:55PM 29.9879 -95.6255 101° East 241 277 4,300 -667 Descending FlightAware ADS-B
11:55PM 29.9879 -95.6190 90° East 237 273 4,300 -462 Level FlightAware ADS-B
11:56PM 29.9893 -95.6102 80° East 233 268 4,200 -857 Descending FlightAware ADS-B
11:56PM 29.9908 -95.6023 78° East 230 265 4,100 -1,200 Descending FlightAware ADS-B
11:56PM 29.9927 -95.5804 86° East 220 253 3,700 -1,102 Descending FlightAware ADS-B
11:57PM 29.9931 -95.5453 90° East 202 232 3,200 -1,043 Descending FlightAware ADS-B
11:57PM 29.9931 -95.5295 90° East 198 228 2,900 -1,161 Descending FlightAware ADS-B
11:57PM 29.9932 -95.5134 90° East 194 223 2,600 -1,021 Descending FlightAware ADS-B
11:58PM 29.9932 -95.4820 90° East 179 206 2,100 -894 Descending FlightAware ADS-B
11:58PM 29.9933 -95.4676 90° East 176 203 1,900 -774 Descending FlightAware ADS-B
11:58PM 29.9933 -95.4533 90° East 171 197 1,700 -938 Descending FlightAware ADS-B
11:58PM 29.9933 -95.4389 90° East 167 192 1,400 -938 Descending FlightAware ADS-B
11:59PM 29.9933 -95.4261 90° East 149 171 1,200 -667 Descending FlightAware ADS-B
11:59PM 29.9933 -95.4170 90° East 145 167 1,100 -667 Descending FlightAware ADS-B
11:59PM 29.9934 -95.4053 89° East 144 166 900 -720 Descending FlightAware ADS-B
11:59PM 29.9934 -95.3980 90° East 145 167 800 -720 Descending FlightAware ADS-B
11:59PM 29.9934 -95.3861 90° East 144 166 600 -692 Descending FlightAware ADS-B
12:00AM 29.9934 -95.3779 90° East 146 168 500 -643 Descending FlightAware ADS-B
12:00AM 29.9934 -95.3648 90° East 143 165 300 -686 Descending FlightAware ADS-B
12:00AM 29.9934 -95.3511 90° East 142 163 100 -667 Descending FlightAware ADS-B